createdAt,value
2022-12-13T00:01:22.776Z,1.77
2022-12-13T00:03:50.765Z,1.53
2022-12-13T00:06:18.541Z,1.40
2022-12-13T00:08:46.254Z,1.63
2022-12-13T00:11:15.168Z,1.73
2022-12-13T00:13:44.318Z,1.70
2022-12-13T00:16:15.682Z,1.70
2022-12-13T00:18:43.780Z,1.50
2022-12-13T00:21:14.896Z,1.63
2022-12-13T00:23:43.012Z,1.83
2022-12-13T00:26:12.809Z,1.40
2022-12-13T00:28:41.109Z,1.63
2022-12-13T00:31:51.619Z,2.43
2022-12-13T00:33:59.336Z,2.17
2022-12-13T00:36:27.251Z,2.00
2022-12-13T00:39:01.682Z,2.00
2022-12-13T00:41:31.655Z,2.83
2022-12-13T00:43:59.964Z,2.10
2022-12-13T00:46:29.115Z,2.23
2022-12-13T00:49:00.561Z,5.77
2022-12-13T00:51:29.884Z,2.73
2022-12-13T00:53:57.831Z,2.63
2022-12-13T00:56:29.246Z,2.93
2022-12-13T00:58:57.805Z,3.70
2022-12-13T01:01:27.100Z,2.50
2022-12-13T01:03:56.590Z,2.73
2022-12-13T01:06:28.886Z,3.33
2022-12-13T01:08:56.632Z,3.07
2022-12-13T01:11:24.648Z,3.27
2022-12-13T01:13:52.405Z,2.50
2022-12-13T01:16:20.154Z,4.83
2022-12-13T01:18:48.039Z,3.70
2022-12-13T01:21:18.509Z,3.50
2022-12-13T01:23:47.604Z,2.50
2022-12-13T01:26:17.810Z,2.87
2022-12-13T01:28:45.756Z,3.33
2022-12-13T01:31:16.026Z,2.87
2022-12-13T01:33:44.293Z,3.23
2022-12-13T01:36:14.540Z,4.37
2022-12-13T01:38:42.295Z,2.83
2022-12-13T01:41:17.850Z,4.13
2022-12-13T01:44:03.324Z,2.60
2022-12-13T01:46:32.922Z,4.13
2022-12-13T01:49:19.310Z,2.50
2022-12-13T01:51:53.613Z,2.93
2022-12-13T01:54:24.236Z,4.07
2022-12-13T01:57:05.882Z,2.30
2022-12-13T01:59:35.200Z,1.67
2022-12-13T02:02:03.202Z,2.57
2022-12-13T02:04:37.429Z,2.33
2022-12-13T02:07:14.156Z,2.10
2022-12-13T02:09:57.030Z,1.80
2022-12-13T02:12:30.214Z,2.20
2022-12-13T02:15:00.606Z,2.20
2022-12-13T02:17:53.557Z,1.90
2022-12-13T02:20:41.329Z,1.90
2022-12-13T02:23:31.840Z,1.70
2022-12-13T02:26:30.276Z,1.77
2022-12-13T02:29:14.374Z,1.27
2022-12-13T02:32:06.830Z,1.30
2022-12-13T02:34:40.550Z,2.67
2022-12-13T02:37:18.096Z,1.60
2022-12-13T02:39:53.085Z,1.20
2022-12-13T02:42:25.126Z,1.30
2022-12-13T02:44:59.924Z,1.43
2022-12-13T02:47:31.899Z,1.20
2022-12-13T02:50:03.621Z,2.93
2022-12-13T02:52:33.597Z,1.33
2022-12-13T02:55:01.374Z,1.53
2022-12-13T02:57:31.316Z,1.10
2022-12-13T03:00:01.819Z,1.10
2022-12-13T03:02:37.608Z,1.93
2022-12-13T03:05:32.968Z,0.77
2022-12-13T03:08:13.051Z,1.30
2022-12-13T03:10:48.065Z,1.50
2022-12-13T03:13:38.854Z,1.27
2022-12-13T03:16:13.308Z,1.30
2022-12-13T03:18:46.200Z,1.20
2022-12-13T03:21:14.386Z,1.27
2022-12-13T03:23:42.132Z,1.20
2022-12-13T03:26:12.264Z,1.00
2022-12-13T03:28:40.934Z,1.70
2022-12-13T03:31:10.365Z,1.23
2022-12-13T03:33:38.807Z,1.73
2022-12-13T03:36:09.010Z,1.10
2022-12-13T03:38:38.676Z,0.90
2022-12-13T03:41:10.276Z,1.17
2022-12-13T03:43:38.930Z,1.00
2022-12-13T03:46:07.183Z,1.00
2022-12-13T03:48:35.116Z,1.30
2022-12-13T03:51:03.771Z,1.07
2022-12-13T03:53:34.609Z,1.00
2022-12-13T03:56:04.199Z,1.10
2022-12-13T03:58:36.190Z,1.33
2022-12-13T04:01:07.050Z,0.97
2022-12-13T04:03:35.511Z,1.60
2022-12-13T04:06:03.266Z,1.30
2022-12-13T04:08:33.217Z,0.90
2022-12-13T04:11:20.969Z,1.17
2022-12-13T04:13:47.709Z,0.77
2022-12-13T04:16:15.508Z,0.80
2022-12-13T04:18:43.511Z,1.10
2022-12-13T04:21:12.409Z,2.23
2022-12-13T04:23:41.476Z,0.70
2022-12-13T04:26:09.200Z,1.00
2022-12-13T04:28:37.177Z,1.27
2022-12-13T04:31:06.004Z,0.70
2022-12-13T04:33:33.825Z,0.90
2022-12-13T04:36:01.618Z,0.83
2022-12-13T04:38:29.343Z,1.07
2022-12-13T04:41:08.162Z,4.00
2022-12-13T04:43:35.982Z,7.20
2022-12-13T04:46:03.800Z,0.87
2022-12-13T04:48:34.766Z,1.43
2022-12-13T04:51:04.701Z,1.00
2022-12-13T04:53:32.455Z,1.13
2022-12-13T04:56:00.384Z,1.00
2022-12-13T04:58:30.988Z,1.10
2022-12-13T05:00:58.734Z,1.10
2022-12-13T05:03:30.302Z,1.33
2022-12-13T05:05:58.012Z,1.00
2022-12-13T05:08:25.746Z,1.00
2022-12-13T05:10:55.586Z,1.30
2022-12-13T05:13:23.278Z,2.27
2022-12-13T05:15:57.623Z,2.40
2022-12-13T05:18:26.100Z,1.53
2022-12-13T05:20:54.262Z,1.00
2022-12-13T05:23:23.718Z,1.17
2022-12-13T05:25:51.787Z,1.77
2022-12-13T05:28:28.358Z,0.90
2022-12-13T05:31:00.053Z,1.20
2022-12-13T05:33:28.888Z,1.07
2022-12-13T05:36:01.334Z,3.10
2022-12-13T05:38:31.933Z,1.13
2022-12-13T05:40:59.876Z,1.00
2022-12-13T05:43:42.003Z,0.93
2022-12-13T05:46:13.233Z,0.97
2022-12-13T05:48:41.148Z,0.90
2022-12-13T05:51:11.437Z,0.83
2022-12-13T05:53:41.077Z,2.73
2022-12-13T05:56:10.227Z,0.87
2022-12-13T05:58:39.579Z,0.87
2022-12-13T06:01:09.576Z,0.93
2022-12-13T06:03:38.976Z,1.13
2022-12-13T06:06:09.611Z,0.90
2022-12-13T06:08:37.432Z,1.00
2022-12-13T06:11:09.964Z,1.00
2022-12-13T06:13:42.762Z,0.90
2022-12-13T06:16:23.400Z,0.80
2022-12-13T06:19:01.364Z,1.30
2022-12-13T06:21:41.365Z,0.80
2022-12-13T06:24:14.975Z,0.90
2022-12-13T06:26:42.848Z,1.13
2022-12-13T06:29:13.207Z,1.00
2022-12-13T06:32:01.947Z,1.00
2022-12-13T06:34:33.889Z,1.27
2022-12-13T06:37:02.563Z,1.10
2022-12-13T06:39:32.870Z,1.20
2022-12-13T06:42:01.451Z,2.43
2022-12-13T06:44:29.313Z,2.40
2022-12-13T06:47:10.467Z,1.60
2022-12-13T06:49:43.689Z,1.33
2022-12-13T06:52:13.349Z,2.77
2022-12-13T06:54:41.626Z,2.50
2022-12-13T06:57:09.675Z,4.60
2022-12-13T06:59:37.642Z,2.77
2022-12-13T07:02:05.812Z,2.70
2022-12-13T07:04:33.895Z,2.87
2022-12-13T07:07:03.411Z,2.10
2022-12-13T07:09:31.801Z,2.10
2022-12-13T07:11:59.582Z,3.20
2022-12-13T07:14:27.642Z,4.33
2022-12-13T07:17:02.876Z,2.83
2022-12-13T07:19:34.879Z,3.63
2022-12-13T07:22:11.363Z,2.70
2022-12-13T07:24:39.067Z,2.37
2022-12-13T07:27:06.814Z,2.30
2022-12-13T07:29:34.559Z,2.40
2022-12-13T07:32:02.377Z,2.27
2022-12-13T07:34:30.638Z,2.60
2022-12-13T07:36:58.575Z,2.60
2022-12-13T07:39:27.905Z,2.40
2022-12-13T07:41:56.688Z,2.30
2022-12-13T07:44:25.130Z,2.77
2022-12-13T07:46:52.977Z,3.67
2022-12-13T07:49:20.967Z,2.80
2022-12-13T07:51:49.074Z,2.50
2022-12-13T07:54:16.935Z,4.77
2022-12-13T07:56:46.140Z,3.33
2022-12-13T07:59:14.317Z,3.80
2022-12-13T08:01:42.115Z,3.20
2022-12-13T08:04:10.278Z,5.07
2022-12-13T08:06:39.051Z,2.83
2022-12-13T08:09:07.358Z,3.20
2022-12-13T08:11:35.076Z,3.87
2022-12-13T08:14:04.274Z,3.53
2022-12-13T08:16:32.030Z,4.03
2022-12-13T08:19:01.905Z,3.77
2022-12-13T08:24:23.699Z,3.20
2022-12-13T08:26:51.490Z,3.27
2022-12-13T08:29:22.993Z,3.10
2022-12-13T08:32:02.992Z,4.60
2022-12-13T08:34:31.729Z,4.50
2022-12-13T08:37:01.514Z,3.20
2022-12-13T08:39:30.233Z,3.63
2022-12-13T08:42:16.415Z,7.20
2022-12-13T08:44:48.517Z,3.70
2022-12-13T08:47:22.523Z,3.90
2022-12-13T08:49:53.527Z,5.50
2022-12-13T08:52:22.505Z,5.20
2022-12-13T08:54:50.287Z,4.87
2022-12-13T08:57:18.160Z,11.73
2022-12-13T08:59:47.293Z,11.07
2022-12-13T09:02:15.679Z,7.03
2022-12-13T09:04:43.847Z,9.97
2022-12-13T09:07:11.570Z,10.83
2022-12-13T09:09:39.311Z,12.03
2022-12-13T09:12:10.342Z,13.50
2022-12-13T09:14:45.201Z,11.40
2022-12-13T09:17:24.992Z,12.60
2022-12-13T09:19:58.021Z,15.57
2022-12-13T09:22:33.775Z,14.13
2022-12-13T09:25:02.397Z,17.60
2022-12-13T09:27:39.841Z,15.43
2022-12-13T09:30:12.941Z,22.73
2022-12-13T09:32:43.561Z,19.10
2022-12-13T09:35:11.285Z,18.90
2022-12-13T09:37:45.593Z,20.30
2022-12-13T09:40:26.290Z,19.43
2022-12-13T09:43:21.861Z,22.33
2022-12-13T09:45:48.007Z,24.50
2022-12-13T09:48:22.977Z,21.43
2022-12-13T09:51:15.977Z,21.10
2022-12-13T09:53:41.475Z,27.27
2022-12-13T09:56:13.422Z,25.73
2022-12-13T09:58:41.158Z,27.97
2022-12-13T10:01:09.020Z,27.60
2022-12-13T10:03:38.227Z,30.13
2022-12-13T10:06:22.913Z,31.33
2022-12-13T10:08:57.293Z,30.37
2022-12-13T10:11:31.756Z,29.70
2022-12-13T10:14:04.313Z,28.03
2022-12-13T10:16:43.752Z,32.43
2022-12-13T10:19:29.551Z,31.37
2022-12-13T10:22:01.250Z,29.37
2022-12-13T10:24:37.004Z,23.57
2022-12-13T10:27:13.737Z,24.23
2022-12-13T10:30:01.275Z,26.73
2022-12-13T10:32:29.089Z,25.33
2022-12-13T10:34:58.285Z,25.93
2022-12-13T10:37:29.483Z,24.73
2022-12-13T10:39:57.495Z,29.00
2022-12-13T10:42:32.150Z,26.77
2022-12-13T10:45:14.753Z,25.93
2022-12-13T10:47:45.244Z,29.47
2022-12-13T10:50:25.705Z,22.97
2022-12-13T10:52:54.919Z,24.53
2022-12-13T10:55:29.759Z,25.97
2022-12-13T10:58:00.853Z,22.67
2022-12-13T11:00:41.447Z,24.13
2022-12-13T11:03:30.013Z,21.90
2022-12-13T11:06:06.534Z,29.87
2022-12-13T11:08:34.281Z,29.63
2022-12-13T11:11:03.594Z,29.13
2022-12-13T11:13:38.423Z,28.50
2022-12-13T11:16:22.397Z,24.67
2022-12-13T11:18:54.433Z,29.17
2022-12-13T11:21:27.661Z,30.53
2022-12-13T11:23:56.770Z,24.40
2022-12-13T11:26:32.034Z,20.27
2022-12-13T11:29:21.788Z,25.40
2022-12-13T11:31:59.995Z,25.67
2022-12-13T11:34:36.281Z,24.27
2022-12-13T11:37:16.920Z,21.13
2022-12-13T11:39:51.020Z,22.63
2022-12-13T11:42:27.099Z,22.23
2022-12-13T11:45:03.957Z,22.57
2022-12-13T11:47:38.403Z,26.40
2022-12-13T11:50:21.837Z,21.43
2022-12-13T11:53:21.410Z,18.80
2022-12-13T11:55:56.339Z,18.13
2022-12-13T12:01:18.877Z,20.43
2022-12-13T12:03:51.217Z,19.93
2022-12-13T12:06:23.389Z,18.87
2022-12-13T12:08:58.150Z,16.17
2022-12-13T12:11:32.736Z,18.27
2022-12-13T12:14:05.906Z,18.23
2022-12-13T12:16:40.644Z,17.67
2022-12-13T12:19:14.582Z,16.03
2022-12-13T12:22:14.637Z,19.37
2022-12-13T12:24:54.797Z,18.70
2022-12-13T12:27:32.010Z,17.13
2022-12-13T12:30:23.536Z,17.97
2022-12-13T12:33:00.510Z,14.90
2022-12-13T12:35:44.660Z,10.77
2022-12-13T12:38:39.498Z,12.07
2022-12-13T12:41:29.265Z,10.47
2022-12-13T12:44:06.670Z,10.53
2022-12-13T12:47:08.663Z,13.27
2022-12-13T12:50:12.015Z,12.10
2022-12-13T12:52:53.540Z,9.33
2022-12-13T12:55:31.725Z,8.43
2022-12-13T12:58:10.135Z,10.70
2022-12-13T13:00:52.244Z,14.43
2022-12-13T13:03:23.398Z,13.23
2022-12-13T13:06:01.931Z,15.97
2022-12-13T13:08:35.339Z,14.77
2022-12-13T13:11:24.803Z,9.70
2022-12-13T13:14:08.192Z,17.53
2022-12-13T13:16:39.014Z,16.33
2022-12-13T13:19:27.193Z,17.37
2022-12-13T13:22:01.545Z,16.50
2022-12-13T13:24:31.489Z,12.93
2022-12-13T13:27:00.800Z,17.47
2022-12-13T13:29:35.579Z,19.93
2022-12-13T13:32:29.088Z,17.63
2022-12-13T13:35:51.009Z,22.20
2022-12-13T13:38:50.387Z,19.13
2022-12-13T13:41:55.019Z,19.47
2022-12-13T13:44:54.642Z,12.30
2022-12-13T13:47:38.922Z,18.87
2022-12-13T13:50:48.962Z,17.43
2022-12-13T13:54:10.473Z,16.10
2022-12-13T13:57:33.202Z,14.93
2022-12-13T14:00:18.361Z,14.97
2022-12-13T14:03:33.293Z,14.93
2022-12-13T14:06:45.273Z,15.77
2022-12-13T14:10:01.225Z,14.60
2022-12-13T14:13:05.023Z,18.27
2022-12-13T14:16:21.274Z,15.03
2022-12-13T14:19:37.884Z,14.87
2022-12-13T14:22:14.697Z,15.90
2022-12-13T14:24:52.751Z,14.70
2022-12-13T14:27:34.970Z,18.77
2022-12-13T14:30:17.980Z,17.37
2022-12-13T14:32:53.622Z,19.80
2022-12-13T14:35:27.346Z,17.10
2022-12-13T14:38:00.866Z,11.67
2022-12-13T14:40:31.664Z,14.27
2022-12-13T14:42:59.968Z,16.57
2022-12-13T14:45:31.683Z,13.97
2022-12-13T14:48:02.285Z,16.83
2022-12-13T14:50:34.237Z,13.97
2022-12-13T14:53:03.251Z,16.97
2022-12-13T14:55:33.345Z,15.03
2022-12-13T14:58:03.763Z,18.13
2022-12-13T15:00:36.545Z,16.70
2022-12-13T15:03:05.468Z,16.53
2022-12-13T15:05:38.527Z,14.40
2022-12-13T15:08:11.026Z,16.83
2022-12-13T15:10:41.862Z,16.07
2022-12-13T15:13:29.363Z,16.20
2022-12-13T15:16:01.825Z,16.13
2022-12-13T15:18:38.473Z,15.47
2022-12-13T15:21:20.431Z,20.67
2022-12-13T15:23:49.447Z,16.37
2022-12-13T15:26:28.045Z,23.37
2022-12-13T15:28:59.727Z,20.23
2022-12-13T15:31:30.109Z,17.87
2022-12-13T15:34:28.850Z,21.43
2022-12-13T15:37:01.122Z,19.23
2022-12-13T15:39:31.053Z,20.73
2022-12-13T15:41:59.633Z,20.03
2022-12-13T15:44:29.634Z,22.00
2022-12-13T15:47:04.080Z,17.27
2022-12-13T15:49:36.344Z,17.67
2022-12-13T15:52:08.187Z,18.83
2022-12-13T15:54:35.868Z,17.87
2022-12-13T15:57:14.356Z,19.60
2022-12-13T15:59:43.920Z,24.80
2022-12-13T16:02:20.222Z,19.33
2022-12-13T16:04:47.990Z,20.47
2022-12-13T16:07:25.999Z,21.40
2022-12-13T16:09:56.480Z,16.10
2022-12-13T16:12:27.024Z,15.90
2022-12-13T16:15:13.933Z,17.03
2022-12-13T16:18:08.040Z,24.83
2022-12-13T16:20:36.103Z,19.13
2022-12-13T16:23:08.925Z,22.07
2022-12-13T16:25:37.458Z,19.80
2022-12-13T16:28:05.567Z,18.30
2022-12-13T16:30:59.682Z,19.07
2022-12-13T16:33:28.786Z,21.47
2022-12-13T16:35:57.184Z,21.77
2022-12-13T16:38:26.315Z,19.37
2022-12-13T16:40:56.640Z,24.67
2022-12-13T16:43:33.541Z,23.80
2022-12-13T16:47:17.332Z,22.10
2022-12-13T16:48:56.433Z,21.87
2022-12-13T16:51:24.525Z,24.37
2022-12-13T16:53:52.303Z,22.23
2022-12-13T16:56:21.753Z,25.00
2022-12-13T16:58:50.626Z,22.13
2022-12-13T17:01:21.078Z,24.10
2022-12-13T17:03:49.201Z,23.67
2022-12-13T17:06:23.430Z,20.90
2022-12-13T17:08:51.371Z,27.63
2022-12-13T17:11:19.083Z,27.00
2022-12-13T17:13:48.225Z,30.30
2022-12-13T17:16:16.100Z,28.00
2022-12-13T17:18:45.281Z,28.40
2022-12-13T17:21:13.028Z,24.60
2022-12-13T17:23:42.120Z,29.27
2022-12-13T17:26:11.833Z,27.50
2022-12-13T17:28:39.823Z,28.83
2022-12-13T17:31:09.027Z,24.97
2022-12-13T17:33:37.278Z,27.90
2022-12-13T17:36:06.558Z,30.07
2022-12-13T17:38:34.731Z,27.23
2022-12-13T17:41:04.315Z,27.07
2022-12-13T17:43:35.227Z,31.93
2022-12-13T17:46:04.980Z,29.07
2022-12-13T17:48:39.582Z,27.63
2022-12-13T17:51:08.753Z,32.80
2022-12-13T17:53:36.840Z,24.77
2022-12-13T17:56:08.213Z,21.53
2022-12-13T17:58:36.490Z,22.67
2022-12-13T18:01:12.396Z,30.43
2022-12-13T18:03:40.200Z,30.60
2022-12-13T18:06:08.413Z,26.27
2022-12-13T18:08:36.885Z,26.30
2022-12-13T18:13:55.540Z,27.60
2022-12-13T18:16:28.865Z,35.03
2022-12-13T18:19:02.039Z,27.80
2022-12-13T18:21:29.845Z,26.77
2022-12-13T18:23:57.557Z,27.53
2022-12-13T18:26:26.666Z,29.67
2022-12-13T18:28:54.373Z,28.57
2022-12-13T18:31:24.695Z,29.33
2022-12-13T18:33:54.452Z,25.87
2022-12-13T18:36:25.237Z,25.20
2022-12-13T18:38:53.372Z,28.77
2022-12-13T18:41:22.552Z,31.00
2022-12-13T18:43:56.314Z,24.80
2022-12-13T18:46:28.288Z,28.63
2022-12-13T18:48:56.712Z,28.37
2022-12-13T18:51:25.184Z,26.47
2022-12-13T18:53:53.655Z,27.50
2022-12-13T18:56:21.510Z,22.57
2022-12-13T18:58:52.111Z,29.47
2022-12-13T19:01:20.858Z,24.07
2022-12-13T19:03:49.329Z,25.60
2022-12-13T19:06:19.338Z,24.57
2022-12-13T19:08:48.865Z,26.47
2022-12-13T19:11:17.016Z,26.07
2022-12-13T19:13:44.757Z,24.13
2022-12-13T19:16:18.424Z,24.63
2022-12-13T19:18:46.402Z,25.20
2022-12-13T19:21:16.317Z,30.43
2022-12-13T19:23:47.313Z,23.23
2022-12-13T19:26:18.078Z,27.30
2022-12-13T19:28:46.642Z,27.90
2022-12-13T19:31:16.500Z,29.77
2022-12-13T19:33:44.933Z,26.97
2022-12-13T19:36:12.673Z,26.70
2022-12-13T19:38:41.831Z,26.87
2022-12-13T19:41:10.817Z,28.63
2022-12-13T19:43:38.924Z,26.87
2022-12-13T19:46:07.302Z,26.83
2022-12-13T19:48:37.633Z,28.63
2022-12-13T19:51:07.540Z,30.93
2022-12-13T19:53:36.675Z,27.73
2022-12-13T19:56:09.701Z,23.73
2022-12-13T19:58:37.789Z,28.97
2022-12-13T20:01:07.046Z,25.03
2022-12-13T20:03:37.725Z,26.37
2022-12-13T20:06:07.247Z,26.10
2022-12-13T20:08:35.100Z,27.77
2022-12-13T20:11:05.621Z,30.07
2022-12-13T20:13:34.120Z,28.40
2022-12-13T20:16:02.258Z,22.00
2022-12-13T20:18:30.033Z,28.20
2022-12-13T20:21:12.850Z,28.87
2022-12-13T20:23:42.173Z,24.60
2022-12-13T20:26:20.236Z,24.27
2022-12-13T20:28:48.514Z,25.67
2022-12-13T20:31:18.596Z,26.00
2022-12-13T20:33:48.646Z,29.73
2022-12-13T20:36:28.892Z,31.77
2022-12-13T20:38:58.322Z,28.30
2022-12-13T20:41:28.111Z,26.83
2022-12-13T20:43:57.422Z,24.87
2022-12-13T20:46:26.403Z,17.83
2022-12-13T20:48:55.201Z,19.87
2022-12-13T20:51:26.065Z,28.90
2022-12-13T20:53:55.155Z,25.57
2022-12-13T20:56:24.035Z,18.83
2022-12-13T20:58:52.340Z,26.47
2022-12-13T21:01:22.521Z,30.47
2022-12-13T21:03:50.784Z,26.67
2022-12-13T21:06:18.472Z,33.00
2022-12-13T21:08:53.903Z,29.37
2022-12-13T21:11:26.125Z,24.90
2022-12-13T21:14:05.374Z,26.03
2022-12-13T21:16:39.313Z,20.47
2022-12-13T21:19:08.594Z,26.93
2022-12-13T21:21:36.879Z,26.97
2022-12-13T21:24:06.963Z,30.33
2022-12-13T21:26:36.264Z,26.33
2022-12-13T21:29:07.268Z,27.43
2022-12-13T21:31:36.250Z,27.23
2022-12-13T21:34:05.315Z,34.77
2022-12-13T21:36:34.604Z,31.57
2022-12-13T21:39:04.651Z,26.83
2022-12-13T21:41:34.040Z,24.27
2022-12-13T21:44:01.729Z,30.27
2022-12-13T21:46:55.169Z,28.63
2022-12-13T21:49:18.389Z,23.53
2022-12-13T21:51:48.145Z,27.37
2022-12-13T21:54:16.624Z,26.33
2022-12-13T21:57:02.964Z,33.00
2022-12-13T21:59:30.921Z,28.70
2022-12-13T22:02:12.977Z,18.43
2022-12-13T22:04:43.398Z,25.93
2022-12-13T22:07:12.610Z,26.23
2022-12-13T22:09:40.457Z,31.43
2022-12-13T22:12:10.924Z,27.87
2022-12-13T22:14:38.895Z,33.73
2022-12-13T22:17:06.660Z,30.47
2022-12-13T22:19:34.459Z,29.43
2022-12-13T22:22:02.167Z,28.07
2022-12-13T22:24:29.943Z,25.67
2022-12-13T22:26:57.646Z,26.27
2022-12-13T22:29:26.978Z,27.20
2022-12-13T22:31:54.977Z,30.13
2022-12-13T22:34:22.813Z,33.50
2022-12-13T22:36:50.615Z,31.17
2022-12-13T22:39:20.391Z,29.67
2022-12-13T22:41:49.441Z,24.73
2022-12-13T22:44:18.898Z,21.23
2022-12-13T22:46:48.323Z,17.20
2022-12-13T22:49:16.284Z,29.77
2022-12-13T22:51:44.280Z,24.83
2022-12-13T22:54:12.188Z,36.87
2022-12-13T22:56:39.937Z,16.67
2022-12-13T22:59:08.278Z,29.77
2022-12-13T23:01:38.279Z,30.33
2022-12-13T23:04:08.192Z,38.17
2022-12-13T23:06:37.914Z,25.10
2022-12-13T23:09:07.751Z,36.07
2022-12-13T23:11:53.414Z,33.93
2022-12-13T23:14:26.232Z,32.30
2022-12-13T23:16:54.081Z,33.97
2022-12-13T23:22:10.976Z,33.73
2022-12-13T23:24:38.701Z,33.30
2022-12-13T23:27:06.411Z,31.00
2022-12-13T23:29:34.184Z,34.67
2022-12-13T23:32:01.994Z,28.80
2022-12-13T23:34:31.098Z,35.17
2022-12-13T23:36:58.848Z,32.37
2022-12-13T23:39:26.695Z,32.40
2022-12-13T23:41:54.414Z,28.20
2022-12-13T23:44:22.596Z,27.80
2022-12-13T23:46:50.335Z,34.00
2022-12-13T23:49:18.083Z,35.00
2022-12-13T23:51:47.169Z,34.47
2022-12-13T23:54:19.249Z,34.73
2022-12-13T23:56:47.093Z,30.70
2022-12-13T23:59:14.814Z,33.57
